^^
Grace C. Lehan Memorial Weather Station Historical Data
Daily Summary for May 21, 2022 Units:  Both    English   Metric
Daily Weekly Monthly Yearly
  High: Low: Average:
Temperature: 40.2 °F /  4.6 °C 23 °F /  -5 °C 32.9 °F /  0.5 °C
Dew Point: 21.9 °F /  -5.6 °C 12.2 °F /  -11 °C 17.8 °F /  -7.9 °C
Humidity: 72% 44.6% 54%
Wind Speed: 4.6mph /  7.4km/h - 0.8mph /  1.3km/h
Wind Gust: 17mph /  27.4km/h - -
Wind- - SW
Pressure: 30.45 in /  1031 hPa 30.17 in /  1021.6 hPa -
Precipitation: 0.00 in /  0 mm    
 
 
Tabular Data for May 21, 2022
Time Temperature Dew Point Pressure Wind Wind Speed Wind Gust Humidity Rainfall Rate (Hourly) solar
00:04 26.3 °F /  -3.2 °C 12.7 °F /  -10.7 °C 30.30in /  1026hPa Calm   1mph /  1.6km/h 56% 0.00in /  0mm 0 W/m2
00:09 26.2 °F /  -3.2 °C 12.7 °F /  -10.7 °C 30.29in /  1025.6hPa Calm     56% 0.00in /  0mm 0 W/m2
00:14 26.1 °F /  -3.3 °C 12.6 °F /  -10.8 °C 30.30in /  1026hPa Calm     56% 0.00in /  0mm 0 W/m2
00:19 26 °F /  -3.3 °C 12.7 °F /  -10.7 °C 30.30in /  1026hPa Calm     56.5% 0.00in /  0mm 0 W/m2
00:24 26 °F /  -3.3 °C 12.9 °F /  -10.6 °C 30.30in /  1026hPa Calm     57% 0.00in /  0mm 0 W/m2
00:29 25.9 °F /  -3.4 °C 12.7 °F /  -10.7 °C 30.30in /  1026hPa Calm     57% 0.00in /  0mm 0 W/m2
00:34 25.8 °F /  -3.4 °C 12.7 °F /  -10.7 °C 30.31in /  1026.3hPa Calm     57% 0.00in /  0mm 0 W/m2
00:39 25.7 °F /  -3.5 °C 12.7 °F /  -10.7 °C 30.31in /  1026.3hPa Calm     57.4% 0.00in /  0mm 0 W/m2
00:44 25.6 °F /  -3.6 °C 12.5 °F /  -10.8 °C 30.31in /  1026.3hPa WSW 0.2mph /  0.3km/h 4mph /  6.4km/h 57.1% 0.00in /  0mm 0 W/m2
00:49 25.5 °F /  -3.6 °C 12.8 °F /  -10.7 °C 30.31in /  1026.3hPa WSW 1mph /  1.6km/h 5mph /  8km/h 58.1% 0.00in /  0mm 0 W/m2
00:54 25.4 °F /  -3.7 °C 13.1 °F /  -10.5 °C 30.30in /  1026hPa WSW 0.2mph /  0.3km/h 5mph /  8km/h 59% 0.00in /  0mm 0 W/m2
00:59 25.4 °F /  -3.7 °C 12.9 °F /  -10.6 °C 30.30in /  1026hPa WSW 1mph /  1.6km/h 5mph /  8km/h 58.5% 0.00in /  0mm 0 W/m2
01:04 25.4 °F /  -3.7 °C 12.7 °F /  -10.7 °C 30.30in /  1026hPa WSW 0.2mph /  0.3km/h 5mph /  8km/h 58% 0.00in /  0mm 0 W/m2
01:09 25.3 °F /  -3.7 °C 12.6 °F /  -10.8 °C 30.30in /  1026hPa WSW 0.4mph /  0.6km/h 4mph /  6.4km/h 58% 0.00in /  0mm 0 W/m2
01:14 25.4 °F /  -3.7 °C 12.7 °F /  -10.7 °C 30.30in /  1026hPa WSW 0.6mph /  1km/h 5mph /  8km/h 58% 0.00in /  0mm 0 W/m2
01:19 25.4 °F /  -3.7 °C 12.7 °F /  -10.7 °C 30.31in /  1026.3hPa WSW 0.4mph /  0.6km/h 5mph /  8km/h 58% 0.00in /  0mm 0 W/m2
01:24 25.4 °F /  -3.7 °C 12.7 °F /  -10.7 °C 30.31in /  1026.3hPa WSW 0.3mph /  0.5km/h 5mph /  8km/h 58% 0.00in /  0mm 0 W/m2
01:29 25.4 °F /  -3.7 °C 12.5 °F /  -10.8 °C 30.32in /  1026.6hPa WSW 0.3mph /  0.5km/h 5mph /  8km/h 57.6% 0.00in /  0mm 0 W/m2
01:34 25.4 °F /  -3.7 °C 12.3 °F /  -10.9 °C 30.32in /  1026.6hPa Calm   5mph /  8km/h 57% 0.00in /  0mm 0 W/m2
01:39 25.4 °F /  -3.7 °C 12.3 °F /  -10.9 °C 30.32in /  1026.6hPa WSW 0.3mph /  0.5km/h 3mph /  4.8km/h 57% 0.00in /  0mm 0 W/m2
01:44 25.3 °F /  -3.7 °C 12.2 °F /  -11 °C 30.32in /  1026.6hPa Calm   3mph /  4.8km/h 57% 0.00in /  0mm 0 W/m2
01:49 25.3 °F /  -3.7 °C 12.2 °F /  -11 °C 30.32in /  1026.6hPa Calm   3mph /  4.8km/h 57% 0.00in /  0mm 0 W/m2
01:54 25.2 °F /  -3.8 °C 12.2 °F /  -11 °C 30.32in /  1026.6hPa Calm   3mph /  4.8km/h 57.1% 0.00in /  0mm 0 W/m2
01:59 25.1 °F /  -3.8 °C 12.6 °F /  -10.8 °C 30.32in /  1026.6hPa Calm   3mph /  4.8km/h 58.6% 0.00in /  0mm 0 W/m2
02:04 24.9 °F /  -3.9 °C 12.7 °F /  -10.7 °C 30.33in /  1027hPa Calm   3mph /  4.8km/h 59% 0.00in /  0mm 0 W/m2
02:09 24.9 °F /  -3.9 °C 12.6 °F /  -10.8 °C 30.33in /  1027hPa Calm     59% 0.00in /  0mm 0 W/m2
02:14 24.8 °F /  -4 °C 12.5 °F /  -10.8 °C 30.33in /  1027hPa Calm     59% 0.00in /  0mm 0 W/m2
02:19 24.7 °F /  -4.1 °C 12.4 °F /  -10.9 °C 30.33in /  1027hPa Calm     59% 0.00in /  0mm 0 W/m2
02:24 24.5 °F /  -4.2 °C 12.7 °F /  -10.7 °C 30.33in /  1027hPa Calm     60% 0.00in /  0mm 0 W/m2
02:29 24.4 °F /  -4.2 °C 12.9 °F /  -10.6 °C 30.33in /  1027hPa Calm     61% 0.00in /  0mm 0 W/m2
02:34 24.2 °F /  -4.3 °C 12.7 °F /  -10.7 °C 30.34in /  1027.3hPa Calm     61% 0.00in /  0mm 0 W/m2
02:39 24 °F /  -4.4 °C 12.7 °F /  -10.7 °C 30.34in /  1027.3hPa Calm     61.5% 0.00in /  0mm 0 W/m2
02:44 23.9 °F /  -4.5 °C 12.8 °F /  -10.7 °C 30.34in /  1027.3hPa Calm     62% 0.00in /  0mm 0 W/m2
02:49 23.8 °F /  -4.6 °C 12.7 °F /  -10.7 °C 30.35in /  1027.7hPa Calm     62% 0.00in /  0mm 0 W/m2
02:54 23.7 °F /  -4.6 °C 12.6 °F /  -10.8 °C 30.35in /  1027.7hPa Calm     62% 0.00in /  0mm 0 W/m2
02:59 23.5 °F /  -4.7 °C 12.8 °F /  -10.7 °C 30.35in /  1027.7hPa Calm     62.9% 0.00in /  0mm 0 W/m2
03:04 23.4 °F /  -4.8 °C 12.7 °F /  -10.7 °C 30.35in /  1027.7hPa Calm     63% 0.00in /  0mm 0 W/m2
03:09 23.3 °F /  -4.8 °C 12.6 °F /  -10.8 °C 30.35in /  1027.7hPa Calm     63% 0.00in /  0mm 0 W/m2
03:14 23.2 °F /  -4.9 °C 12.7 °F /  -10.7 °C 30.35in /  1027.7hPa Calm     63.6% 0.00in /  0mm 0 W/m2
03:19 23.2 °F /  -4.9 °C 13.1 °F /  -10.5 °C 30.35in /  1027.7hPa Calm     64.7% 0.00in /  0mm 0 W/m2
03:24 23.2 °F /  -4.9 °C 13.2 °F /  -10.4 °C 30.35in /  1027.7hPa Calm     65% 0.00in /  0mm 0 W/m2
03:29 23.1 °F /  -4.9 °C 13.2 °F /  -10.4 °C 30.35in /  1027.7hPa Calm     65.2% 0.00in /  0mm 0 W/m2
03:34 23 °F /  -5 °C 13.4 °F /  -10.3 °C 30.35in /  1027.7hPa Calm     66% 0.00in /  0mm 0 W/m2
03:39 23 °F /  -5 °C 13.1 °F /  -10.5 °C 30.35in /  1027.7hPa Calm     65.3% 0.00in /  0mm 0 W/m2
03:44 23.1 °F /  -4.9 °C 13.1 °F /  -10.5 °C 30.35in /  1027.7hPa Calm     65% 0.00in /  0mm 0 W/m2
03:49 23.1 °F /  -4.9 °C 13.1 °F /  -10.5 °C 30.35in /  1027.7hPa Calm     65% 0.00in /  0mm 0 W/m2
03:54 23.1 °F /  -4.9 °C 13.1 °F /  -10.5 °C 30.36in /  1028hPa Calm     65% 0.00in /  0mm 0 W/m2
03:59 23.1 °F /  -4.9 °C 13.3 °F /  -10.4 °C 30.36in /  1028hPa Calm   1mph /  1.6km/h 65.5% 0.00in /  0mm 0 W/m2
04:00 23.1 °F /  -4.9 °C 13.5 °F /  -10.3 °C 30.36in /  1028hPa Calm   1mph /  1.6km/h 66% 0.00in /  0mm 0 W/m2
04:09 23.2 °F /  -4.9 °C 13.3 °F /  -10.4 °C 30.36in /  1028hPa Calm     65.4% 0.00in /  0mm 0 W/m2
04:14 23.2 °F /  -4.9 °C 13.3 °F /  -10.4 °C 30.36in /  1028hPa Calm     65.3% 0.00in /  0mm 0 W/m2
04:19 23.3 °F /  -4.8 °C 13.6 °F /  -10.2 °C 30.37in /  1028.3hPa Calm     65.9% 0.00in /  0mm 0 W/m2
04:24 23.3 °F /  -4.8 °C 13.6 °F /  -10.2 °C 30.37in /  1028.3hPa Calm     65.8% 0.00in /  0mm 0 W/m2
04:29 23.5 °F /  -4.7 °C 13.6 °F /  -10.2 °C 30.37in /  1028.3hPa Calm     65.4% 0.00in /  0mm 0 W/m2
04:34 23.6 °F /  -4.7 °C 13.6 °F /  -10.2 °C 30.38in /  1028.7hPa Calm     65% 0.00in /  0mm 0 W/m2
04:39 23.6 °F /  -4.7 °C 13.5 °F /  -10.3 °C 30.37in /  1028.3hPa Calm     64.9% 0.00in /  0mm 0 W/m2
04:44 23.6 °F /  -4.7 °C 13.2 °F /  -10.4 °C 30.37in /  1028.3hPa Calm   1mph /  1.6km/h 64% 0.00in /  0mm 0 W/m2
04:49 23.5 °F /  -4.7 °C 13.1 °F /  -10.5 °C 30.38in /  1028.7hPa Calm   1mph /  1.6km/h 64% 0.00in /  0mm 0 W/m2
04:54 23.5 °F /  -4.7 °C 13.4 °F /  -10.3 °C 30.38in /  1028.7hPa Calm   1mph /  1.6km/h 64.7% 0.00in /  0mm 0 W/m2
04:59 23.5 °F /  -4.7 °C 13.5 °F /  -10.3 °C 30.38in /  1028.7hPa Calm   1mph /  1.6km/h 65% 0.00in /  0mm 0 W/m2
05:04 23.6 °F /  -4.7 °C 13.6 °F /  -10.2 °C 30.38in /  1028.7hPa Calm   1mph /  1.6km/h 65% 0.00in /  0mm 0 W/m2
05:09 23.6 °F /  -4.7 °C 13.6 °F /  -10.2 °C 30.38in /  1028.7hPa Calm     65% 0.00in /  0mm 0 W/m2
05:14 23.5 °F /  -4.7 °C 13.5 °F /  -10.3 °C 30.39in /  1029hPa Calm     65% 0.00in /  0mm 0 W/m2
05:19 23.6 °F /  -4.7 °C 13.9 °F /  -10.1 °C 30.39in /  1029hPa Calm     65.9% 0.00in /  0mm 0 W/m2
05:24 23.7 °F /  -4.6 °C 14 °F /  -10 °C 30.39in /  1029hPa Calm     66% 0.00in /  0mm 0 W/m2
05:29 23.8 °F /  -4.6 °C 14.1 °F /  -9.9 °C 30.40in /  1029.3hPa Calm   1mph /  1.6km/h 66% 0.00in /  0mm 0 W/m2
05:34 23.9 °F /  -4.5 °C 14.2 °F /  -9.9 °C 30.40in /  1029.3hPa Calm   1mph /  1.6km/h 66% 0.00in /  0mm 0 W/m2
05:39 24 °F /  -4.4 °C 14.3 °F /  -9.8 °C 30.40in /  1029.3hPa Calm     66% 0.00in /  0mm 0 W/m2
05:44 24 °F /  -4.4 °C 14 °F /  -10 °C 30.40in /  1029.3hPa Calm     65.2% 0.00in /  0mm 0 W/m2
05:49 24 °F /  -4.4 °C 14 °F /  -10 °C 30.40in /  1029.3hPa Calm     65% 0.00in /  0mm 0 W/m2
05:54 24 °F /  -4.4 °C 14.2 °F /  -9.9 °C 30.40in /  1029.3hPa Calm     65.8% 0.00in /  0mm 0 W/m2
05:59 23.9 °F /  -4.5 °C 14.2 °F /  -9.9 °C 30.40in /  1029.3hPa Calm     66% 0.00in /  0mm 0 W/m2
06:04 23.9 °F /  -4.5 °C 14.2 °F /  -9.9 °C 30.41in /  1029.7hPa Calm     66% 0.00in /  0mm 0 W/m2
06:09 23.8 °F /  -4.6 °C 14.1 °F /  -9.9 °C 30.41in /  1029.7hPa Calm     66% 0.00in /  0mm 0 W/m2
06:14 23.8 °F /  -4.6 °C 14.1 °F /  -9.9 °C 30.41in /  1029.7hPa Calm     66% 0.00in /  0mm 0 W/m2
06:19 23.7 °F /  -4.6 °C 14 °F /  -10 °C 30.41in /  1029.7hPa Calm     66% 0.00in /  0mm 0 W/m2
06:24 23.6 °F /  -4.7 °C 14 °F /  -10 °C 30.41in /  1029.7hPa Calm     66.3% 0.00in /  0mm 0 W/m2
06:29 23.6 °F /  -4.7 °C 14.3 °F /  -9.8 °C 30.42in /  1030hPa Calm     67% 0.00in /  0mm 0 W/m2
06:34 23.5 °F /  -4.7 °C 14.2 °F /  -9.9 °C 30.42in /  1030hPa Calm     67% 0.00in /  0mm 0 W/m2
06:39 23.5 °F /  -4.7 °C 14.2 °F /  -9.9 °C 30.42in /  1030hPa Calm     67% 0.00in /  0mm 0 W/m2
06:44 23.4 °F /  -4.8 °C 14.4 °F /  -9.8 °C 30.42in /  1030hPa Calm     67.8% 0.00in /  0mm 0 W/m2
06:49 23.4 °F /  -4.8 °C 14.4 °F /  -9.8 °C 30.42in /  1030hPa Calm     68% 0.00in /  0mm 5 W/m2
06:54 23.3 °F /  -4.8 °C 14.6 °F /  -9.7 °C 30.43in /  1030.4hPa Calm     68.8% 0.00in /  0mm 7 W/m2
06:59 23.3 °F /  -4.8 °C 14.8 °F /  -9.6 °C 30.43in /  1030.4hPa Calm     69.4% 0.00in /  0mm 11 W/m2
07:04 23.3 °F /  -4.8 °C 15 °F /  -9.4 °C 30.43in /  1030.4hPa Calm     70% 0.00in /  0mm 14 W/m2
07:09 23.3 °F /  -4.8 °C 15 °F /  -9.4 °C 30.43in /  1030.4hPa Calm     70% 0.00in /  0mm 21 W/m2
07:14 23.3 °F /  -4.8 °C 15.2 °F /  -9.3 °C 30.43in /  1030.4hPa Calm     70.8% 0.00in /  0mm 26 W/m2
07:19 23.4 °F /  -4.8 °C 15.4 °F /  -9.2 °C 30.43in /  1030.4hPa Calm     71% 0.00in /  0mm 47 W/m2
07:24 23.6 °F /  -4.7 °C 15.9 °F /  -8.9 °C 30.44in /  1030.7hPa Calm     71.8% 0.00in /  0mm 86 W/m2
07:29 24.1 °F /  -4.4 °C 16.4 °F /  -8.7 °C 30.43in /  1030.4hPa Calm     72% 0.00in /  0mm 104 W/m2
07:34 25 °F /  -3.9 °C 17.3 °F /  -8.2 °C 30.44in /  1030.7hPa Calm     72% 0.00in /  0mm 116 W/m2
07:39 26.2 °F /  -3.2 °C 18 °F /  -7.8 °C 30.44in /  1030.7hPa Calm     70.7% 0.00in /  0mm 134 W/m2
07:44 27.6 °F /  -2.4 °C 18.2 °F /  -7.7 °C 30.44in /  1030.7hPa Calm     67.6% 0.00in /  0mm 153 W/m2
07:49 28.8 °F /  -1.8 °C 18.6 °F /  -7.4 °C 30.44in /  1030.7hPa Calm     65.2% 0.00in /  0mm 160 W/m2
07:54 29.9 °F /  -1.2 °C 18.8 °F /  -7.3 °C 30.44in /  1030.7hPa Calm     62.9% 0.00in /  0mm 163 W/m2
07:59 30.8 °F /  -0.7 °C 18.7 °F /  -7.4 °C 30.44in /  1030.7hPa WSW 0.1mph /  0.2km/h 4mph /  6.4km/h 60.4% 0.00in /  0mm 156 W/m2
08:00 31.2 °F /  -0.4 °C 18.6 °F /  -7.4 °C 30.44in /  1030.7hPa WSW 1mph /  1.6km/h 4mph /  6.4km/h 59% 0.00in /  0mm 148 W/m2
08:09 31.8 °F /  -0.1 °C 18.7 °F /  -7.4 °C 30.44in /  1030.7hPa WSW 0.1mph /  0.2km/h 1mph /  1.6km/h 57.7% 0.00in /  0mm 193 W/m2
08:14 32.3 °F /  0.2 °C 18.5 °F /  -7.5 °C 30.45in /  1031hPa WSW 0.5mph /  0.8km/h 3mph /  4.8km/h 56.4% 0.00in /  0mm 230 W/m2
08:19 32.6 °F /  0.3 °C 18.2 °F /  -7.7 °C 30.45in /  1031hPa WSW 0.2mph /  0.3km/h 4mph /  6.4km/h 55% 0.00in /  0mm 241 W/m2
08:24 33 °F /  0.6 °C 18.4 °F /  -7.6 °C 30.44in /  1030.7hPa Calm   4mph /  6.4km/h 54.5% 0.00in /  0mm 260 W/m2
08:29 33.4 °F /  0.8 °C 18.6 °F /  -7.4 °C 30.44in /  1030.7hPa Calm   4mph /  6.4km/h 54% 0.00in /  0mm 262 W/m2
08:34 34 °F /  1.1 °C 18.6 °F /  -7.4 °C 30.44in /  1030.7hPa WSW 0.5mph /  0.8km/h 4mph /  6.4km/h 52.9% 0.00in /  0mm 279 W/m2
08:39 34.2 °F /  1.2 °C 18 °F /  -7.8 °C 30.44in /  1030.7hPa Calm   2mph /  3.2km/h 51% 0.00in /  0mm 292 W/m2
08:44 34.4 °F /  1.3 °C 18.1 °F /  -7.7 °C 30.44in /  1030.7hPa WSW 0.4mph /  0.6km/h 5mph /  8km/h 51% 0.00in /  0mm 299 W/m2
08:49 34.2 °F /  1.2 °C 17.2 °F /  -8.2 °C 30.44in /  1030.7hPa WSW 0.7mph /  1.1km/h 5mph /  8km/h 49.5% 0.00in /  0mm 295 W/m2
08:54 33.8 °F /  1 °C 17.1 °F /  -8.3 °C 30.44in /  1030.7hPa WSW 0.2mph /  0.3km/h 5mph /  8km/h 50% 0.00in /  0mm 294 W/m2
08:59 33.3 °F /  0.7 °C 16.7 °F /  -8.5 °C 30.44in /  1030.7hPa WSW 1.2mph /  1.9km/h 6mph /  9.7km/h 50% 0.00in /  0mm 165 W/m2
09:04 32.7 °F /  0.4 °C 16.4 °F /  -8.7 °C 30.44in /  1030.7hPa WSW 0.4mph /  0.6km/h 6mph /  9.7km/h 50.6% 0.00in /  0mm 156 W/m2
09:09 32.3 °F /  0.2 °C 16.4 °F /  -8.7 °C 30.44in /  1030.7hPa Calm   4mph /  6.4km/h 51.5% 0.00in /  0mm 81 W/m2
09:14 32.1 °F /  0.1 °C 16.7 °F /  -8.5 °C 30.44in /  1030.7hPa WSW 0.3mph /  0.5km/h 4mph /  6.4km/h 52.4% 0.00in /  0mm 160 W/m2
09:19 32.2 °F /  0.1 °C 16.7 °F /  -8.5 °C 30.44in /  1030.7hPa WSW 0.7mph /  1.1km/h 5mph /  8km/h 52.4% 0.00in /  0mm 183 W/m2
09:24 32.3 °F /  0.2 °C 16.6 °F /  -8.6 °C 30.45in /  1031hPa SW 1mph /  1.6km/h 5mph /  8km/h 52% 0.00in /  0mm 192 W/m2
09:29 32.3 °F /  0.2 °C 16.7 °F /  -8.5 °C 30.44in /  1030.7hPa SW 0.3mph /  0.5km/h 5mph /  8km/h 52% 0.00in /  0mm 185 W/m2
09:34 32.4 °F /  0.2 °C 16.8 °F /  -8.4 °C 30.44in /  1030.7hPa SW 0.5mph /  0.8km/h 5mph /  8km/h 52% 0.00in /  0mm 134 W/m2
09:39 32.5 °F /  0.3 °C 16.9 °F /  -8.4 °C 30.44in /  1030.7hPa SW 1mph /  1.6km/h 7mph /  11.3km/h 52% 0.00in /  0mm 190 W/m2
09:44 32.7 °F /  0.4 °C 17.1 °F /  -8.3 °C 30.44in /  1030.7hPa SW 0.7mph /  1.1km/h 7mph /  11.3km/h 52.2% 0.00in /  0mm 200 W/m2
09:49 32.8 °F /  0.4 °C 17.2 °F /  -8.2 °C 30.44in /  1030.7hPa SSW 1mph /  1.6km/h 7mph /  11.3km/h 52% 0.00in /  0mm 190 W/m2
09:54 33 °F /  0.6 °C 17.4 °F /  -8.1 °C 30.43in /  1030.4hPa SW 0.3mph /  0.5km/h 7mph /  11.3km/h 52.1% 0.00in /  0mm 223 W/m2
09:59 33.5 °F /  0.8 °C 17.7 °F /  -7.9 °C 30.43in /  1030.4hPa SW 0.2mph /  0.3km/h 7mph /  11.3km/h 52% 0.00in /  0mm 325 W/m2
10:04 34.1 °F /  1.2 °C 18.1 °F /  -7.7 °C 30.43in /  1030.4hPa SW 0.2mph /  0.3km/h 7mph /  11.3km/h 51.5% 0.00in /  0mm 443 W/m2
10:09 34.9 °F /  1.6 °C 18.5 °F /  -7.5 °C 30.43in /  1030.4hPa SW 1mph /  1.6km/h 7mph /  11.3km/h 50.8% 0.00in /  0mm 454 W/m2
10:14 35.6 °F /  2 °C 19.2 °F /  -7.1 °C 30.42in /  1030hPa West 0.7mph /  1.1km/h 7mph /  11.3km/h 50.7% 0.00in /  0mm 424 W/m2
10:19 36.5 °F /  2.5 °C 19.8 °F /  -6.8 °C 30.42in /  1030hPa West 0.1mph /  0.2km/h 7mph /  11.3km/h 50.4% 0.00in /  0mm 480 W/m2
10:24 37.4 °F /  3 °C 20 °F /  -6.7 °C 30.42in /  1030hPa West 0.2mph /  0.3km/h 7mph /  11.3km/h 48.9% 0.00in /  0mm 490 W/m2
10:29 38.1 °F /  3.4 °C 20.1 °F /  -6.6 °C 30.42in /  1030hPa WSW 0.3mph /  0.5km/h 7mph /  11.3km/h 47.8% 0.00in /  0mm 496 W/m2
10:34 38.5 °F /  3.6 °C 19.8 °F /  -6.8 °C 30.42in /  1030hPa WSW 1mph /  1.6km/h 7mph /  11.3km/h 46.5% 0.00in /  0mm 494 W/m2
10:39 38.1 °F /  3.4 °C 19 °F /  -7.2 °C 30.42in /  1030hPa SW 0.2mph /  0.3km/h 6mph /  9.7km/h 45.8% 0.00in /  0mm 404 W/m2
10:44 37.5 °F /  3.1 °C 18.9 °F /  -7.3 °C 30.41in /  1029.7hPa SW 0.1mph /  0.2km/h 6mph /  9.7km/h 46.6% 0.00in /  0mm 160 W/m2
10:49 37.2 °F /  2.9 °C 18.9 °F /  -7.3 °C 30.41in /  1029.7hPa SW 1.8mph /  2.9km/h 6mph /  9.7km/h 47.2% 0.00in /  0mm 123 W/m2
10:54 37.1 °F /  2.8 °C 18.9 °F /  -7.3 °C 30.41in /  1029.7hPa SW 0.5mph /  0.8km/h 6mph /  9.7km/h 47.4% 0.00in /  0mm 418 W/m2
10:59 36.9 °F /  2.7 °C 18.7 °F /  -7.4 °C 30.40in /  1029.3hPa SW 0.7mph /  1.1km/h 6mph /  9.7km/h 47.3% 0.00in /  0mm 304 W/m2
11:04 36.7 °F /  2.6 °C 19 °F /  -7.2 °C 30.40in /  1029.3hPa SW 1.3mph /  2.1km/h 9mph /  14.5km/h 48.2% 0.00in /  0mm 185 W/m2
11:09 36.6 °F /  2.6 °C 19 °F /  -7.2 °C 30.39in /  1029hPa SW 1mph /  1.6km/h 9mph /  14.5km/h 48.6% 0.00in /  0mm 461 W/m2
11:14 36.8 °F /  2.7 °C 20 °F /  -6.7 °C 30.39in /  1029hPa SW 0.2mph /  0.3km/h 9mph /  14.5km/h 50.2% 0.00in /  0mm 461 W/m2
11:19 37.2 °F /  2.9 °C 20.2 °F /  -6.6 °C 30.38in /  1028.7hPa WSW 0.5mph /  0.8km/h 9mph /  14.5km/h 49.8% 0.00in /  0mm 301 W/m2
11:24 37.6 °F /  3.1 °C 20.4 °F /  -6.4 °C 30.38in /  1028.7hPa WSW 1.1mph /  1.8km/h 9mph /  14.5km/h 49.4% 0.00in /  0mm 248 W/m2
11:29 37.7 °F /  3.2 °C 19.4 °F /  -7 °C 30.38in /  1028.7hPa SSW 1.2mph /  1.9km/h 9mph /  14.5km/h 47.2% 0.00in /  0mm 156 W/m2
11:34 37.4 °F /  3 °C 19.2 °F /  -7.1 °C 30.38in /  1028.7hPa SSW 1.8mph /  2.9km/h 9mph /  14.5km/h 47.4% 0.00in /  0mm 190 W/m2
11:39 37.3 °F /  2.9 °C 19.8 °F /  -6.8 °C 30.37in /  1028.3hPa SW 0.6mph /  1km/h 7mph /  11.3km/h 48.9% 0.00in /  0mm 84 W/m2
11:44 37.4 °F /  3 °C 19.7 °F /  -6.8 °C 30.37in /  1028.3hPa SW 2mph /  3.2km/h 7mph /  11.3km/h 48.5% 0.00in /  0mm 369 W/m2
11:49 37.4 °F /  3 °C 19.6 °F /  -6.9 °C 30.37in /  1028.3hPa SW 1.1mph /  1.8km/h 7mph /  11.3km/h 48.1% 0.00in /  0mm 132 W/m2
11:54 37.5 °F /  3.1 °C 20 °F /  -6.7 °C 30.36in /  1028hPa SW 1.2mph /  1.9km/h 7mph /  11.3km/h 48.9% 0.00in /  0mm 148 W/m2
11:59 37.5 °F /  3.1 °C 19.6 °F /  -6.9 °C 30.36in /  1028hPa SSW 1.7mph /  2.7km/h 7mph /  11.3km/h 48% 0.00in /  0mm 373 W/m2
12:09 37.6 °F /  3.1 °C 19.8 °F /  -6.8 °C 30.35in /  1027.7hPa SSW 0.8mph /  1.3km/h 5mph /  8km/h 48.2% 0.00in /  0mm 179 W/m2
12:14 37.8 °F /  3.2 °C 20.1 °F /  -6.6 °C 30.35in /  1027.7hPa SW 2.4mph /  3.9km/h 11mph /  17.7km/h 48.3% 0.00in /  0mm 121 W/m2
12:19 38 °F /  3.3 °C 20.1 °F /  -6.6 °C 30.35in /  1027.7hPa SW 2.2mph /  3.5km/h 11mph /  17.7km/h 48% 0.00in /  0mm 190 W/m2
12:24 38.2 °F /  3.4 °C 20.3 °F /  -6.5 °C 30.34in /  1027.3hPa SW 1.3mph /  2.1km/h 11mph /  17.7km/h 48% 0.00in /  0mm 105 W/m2
12:29 38.5 °F /  3.6 °C 20.5 °F /  -6.4 °C 30.34in /  1027.3hPa SW 1.7mph /  2.7km/h 11mph /  17.7km/h 47.9% 0.00in /  0mm 171 W/m2
12:34 38.6 °F /  3.7 °C 20.2 °F /  -6.6 °C 30.34in /  1027.3hPa SW 1.5mph /  2.4km/h 11mph /  17.7km/h 47% 0.00in /  0mm 98 W/m2
12:39 38.7 °F /  3.7 °C 20.3 °F /  -6.5 °C 30.33in /  1027hPa SW 0.4mph /  0.6km/h 6mph /  9.7km/h 47% 0.00in /  0mm 44 W/m2
12:44 38.9 °F /  3.8 °C 20.5 °F /  -6.4 °C 30.33in /  1027hPa WSW 1.2mph /  1.9km/h 9mph /  14.5km/h 47.2% 0.00in /  0mm 40 W/m2
12:49 39.1 °F /  3.9 °C 21 °F /  -6.1 °C 30.32in /  1026.6hPa SW 1.1mph /  1.8km/h 9mph /  14.5km/h 47.8% 0.00in /  0mm 77 W/m2
12:54 39.4 °F /  4.1 °C 20.9 °F /  -6.2 °C 30.32in /  1026.6hPa SW 0.7mph /  1.1km/h 9mph /  14.5km/h 47% 0.00in /  0mm 156 W/m2
12:59 39.8 °F /  4.3 °C 20.8 °F /  -6.2 °C 30.32in /  1026.6hPa SSW 1.3mph /  2.1km/h 9mph /  14.5km/h 46.2% 0.00in /  0mm 441 W/m2
13:04 39.8 °F /  4.3 °C 20.7 °F /  -6.3 °C 30.32in /  1026.6hPa SSW 1.7mph /  2.7km/h 9mph /  14.5km/h 46% 0.00in /  0mm 269 W/m2
13:09 39.9 °F /  4.4 °C 20.9 °F /  -6.2 °C 30.31in /  1026.3hPa SSW 1mph /  1.6km/h 6mph /  9.7km/h 46.1% 0.00in /  0mm 394 W/m2
13:14 40 °F /  4.4 °C 21 °F /  -6.1 °C 30.31in /  1026.3hPa SSW 0.6mph /  1km/h 6mph /  9.7km/h 46.1% 0.00in /  0mm 387 W/m2
13:19 40 °F /  4.4 °C 20.9 °F /  -6.2 °C 30.30in /  1026hPa SSW 1mph /  1.6km/h 6mph /  9.7km/h 46% 0.00in /  0mm 366 W/m2
13:24 39.9 °F /  4.4 °C 20.9 °F /  -6.2 °C 30.30in /  1026hPa SW 1.6mph /  2.6km/h 12mph /  19.3km/h 46% 0.00in /  0mm 366 W/m2
13:29 39.8 °F /  4.3 °C 20.7 °F /  -6.3 °C 30.30in /  1026hPa SW 2.6mph /  4.2km/h 12mph /  19.3km/h 46% 0.00in /  0mm 153 W/m2
13:34 39.8 °F /  4.3 °C 20.7 °F /  -6.3 °C 30.30in /  1026hPa SW 2.3mph /  3.7km/h 12mph /  19.3km/h 46% 0.00in /  0mm 148 W/m2
13:39 39.8 °F /  4.3 °C 20.7 °F /  -6.3 °C 30.29in /  1025.6hPa SSW 1.5mph /  2.4km/h 7mph /  11.3km/h 46% 0.00in /  0mm 188 W/m2
13:44 39.9 °F /  4.4 °C 21 °F /  -6.1 °C 30.29in /  1025.6hPa SSW 2.5mph /  4km/h 7mph /  11.3km/h 46.4% 0.00in /  0mm 234 W/m2
13:49 40 °F /  4.4 °C 20.6 °F /  -6.3 °C 30.28in /  1025.3hPa SSW 2.2mph /  3.5km/h 9mph /  14.5km/h 45.5% 0.00in /  0mm 308 W/m2
13:54 40.1 °F /  4.5 °C 20.6 °F /  -6.3 °C 30.28in /  1025.3hPa SW 3.6mph /  5.8km/h 11mph /  17.7km/h 45.3% 0.00in /  0mm 306 W/m2
13:59 40.2 °F /  4.6 °C 20.5 °F /  -6.4 °C 30.28in /  1025.3hPa SW 2.8mph /  4.5km/h 11mph /  17.7km/h 45% 0.00in /  0mm 134 W/m2
14:04 40.2 °F /  4.6 °C 20.6 °F /  -6.3 °C 30.28in /  1025.3hPa SW 2.5mph /  4km/h 11mph /  17.7km/h 45% 0.00in /  0mm 111 W/m2
14:09 40.2 °F /  4.6 °C 20.5 °F /  -6.4 °C 30.27in /  1024.9hPa SW 2mph /  3.2km/h 11mph /  17.7km/h 44.9% 0.00in /  0mm 118 W/m2
14:14 40.2 °F /  4.6 °C 20.5 °F /  -6.4 °C 30.27in /  1024.9hPa SW 2.7mph /  4.3km/h 11mph /  17.7km/h 44.9% 0.00in /  0mm 77 W/m2
14:19 40 °F /  4.4 °C 20.2 °F /  -6.6 °C 30.27in /  1024.9hPa SW 1.5mph /  2.4km/h 11mph /  17.7km/h 44.6% 0.00in /  0mm 44 W/m2
14:24 39.9 °F /  4.4 °C 20.3 °F /  -6.5 °C 30.27in /  1024.9hPa SW 1.9mph /  3.1km/h 11mph /  17.7km/h 45% 0.00in /  0mm 60 W/m2
14:29 39.8 °F /  4.3 °C 20.7 °F /  -6.3 °C 30.27in /  1024.9hPa SW 1.1mph /  1.8km/h 11mph /  17.7km/h 45.9% 0.00in /  0mm 62 W/m2
14:34 39.8 °F /  4.3 °C 20.1 °F /  -6.6 °C 30.27in /  1024.9hPa South 0.8mph /  1.3km/h 11mph /  17.7km/h 44.9% 0.00in /  0mm 26 W/m2
14:39 39.7 °F /  4.3 °C 20.1 °F /  -6.6 °C 30.26in /  1024.6hPa South 2mph /  3.2km/h 7mph /  11.3km/h 45% 0.00in /  0mm 26 W/m2
14:44 39.6 °F /  4.2 °C 20.2 °F /  -6.6 °C 30.26in /  1024.6hPa South 1.5mph /  2.4km/h 7mph /  11.3km/h 45.3% 0.00in /  0mm 25 W/m2
14:49 39.5 °F /  4.2 °C 20.6 °F /  -6.3 °C 30.26in /  1024.6hPa SW 0.9mph /  1.4km/h 7mph /  11.3km/h 46.3% 0.00in /  0mm 25 W/m2
14:54 39.5 °F /  4.2 °C 20.8 °F /  -6.2 °C 30.26in /  1024.6hPa South 2.5mph /  4km/h 10mph /  16.1km/h 46.8% 0.00in /  0mm 25 W/m2
14:59 39.4 °F /  4.1 °C 21 °F /  -6.1 °C 30.26in /  1024.6hPa South 1.9mph /  3.1km/h 10mph /  16.1km/h 47.3% 0.00in /  0mm 23 W/m2
15:04 39.4 °F /  4.1 °C 21.1 °F /  -6.1 °C 30.25in /  1024.3hPa SW 2.2mph /  3.5km/h 10mph /  16.1km/h 47.5% 0.00in /  0mm 23 W/m2
15:09 39.3 °F /  4.1 °C 20.7 °F /  -6.3 °C 30.25in /  1024.3hPa SW 3mph /  4.8km/h 10mph /  16.1km/h 47% 0.00in /  0mm 21 W/m2
15:14 39.2 °F /  4 °C 21.1 °F /  -6.1 °C 30.24in /  1023.9hPa SSW 1mph /  1.6km/h 10mph /  16.1km/h 47.8% 0.00in /  0mm 21 W/m2
15:19 39.1 °F /  3.9 °C 21.1 °F /  -6.1 °C 30.24in /  1023.9hPa SSW 1.5mph /  2.4km/h 10mph /  16.1km/h 48% 0.00in /  0mm 16 W/m2
15:24 39 °F /  3.9 °C 21.2 °F /  -6 °C 30.24in /  1023.9hPa SSW 1.1mph /  1.8km/h 10mph /  16.1km/h 48.4% 0.00in /  0mm 18 W/m2
15:29 38.9 °F /  3.8 °C 21.3 °F /  -5.9 °C 30.24in /  1023.9hPa SSW 1.7mph /  2.7km/h 10mph /  16.1km/h 49% 0.00in /  0mm 18 W/m2
15:34 38.8 °F /  3.8 °C 20.9 °F /  -6.2 °C 30.24in /  1023.9hPa SW 0.9mph /  1.4km/h 10mph /  16.1km/h 48.3% 0.00in /  0mm 19 W/m2
15:39 38.8 °F /  3.8 °C 21 °F /  -6.1 °C 30.23in /  1023.6hPa SW 0.6mph /  1km/h 6mph /  9.7km/h 48.3% 0.00in /  0mm 19 W/m2
15:44 38.8 °F /  3.8 °C 21.2 °F /  -6 °C 30.23in /  1023.6hPa SSW 0.8mph /  1.3km/h 6mph /  9.7km/h 48.8% 0.00in /  0mm 16 W/m2
15:49 38.8 °F /  3.8 °C 20.9 °F /  -6.2 °C 30.23in /  1023.6hPa SSW 0.3mph /  0.5km/h 6mph /  9.7km/h 48.3% 0.00in /  0mm 14 W/m2
15:54 38.7 °F /  3.7 °C 20.7 °F /  -6.3 °C 30.23in /  1023.6hPa SSW 0.5mph /  0.8km/h 6mph /  9.7km/h 48% 0.00in /  0mm 12 W/m2
15:59 38.6 °F /  3.7 °C 21.1 °F /  -6.1 °C 30.23in /  1023.6hPa SSW 0.3mph /  0.5km/h 6mph /  9.7km/h 49% 0.00in /  0mm 11 W/m2
16:09 38.3 °F /  3.5 °C 21 °F /  -6.1 °C 30.22in /  1023.2hPa SSW 0.8mph /  1.3km/h 5mph /  8km/h 49.3% 0.00in /  0mm 9 W/m2
16:14 38.1 °F /  3.4 °C 21 °F /  -6.1 °C 30.22in /  1023.2hPa SSW 0.4mph /  0.6km/h 5mph /  8km/h 49.7% 0.00in /  0mm 5 W/m2
16:19 37.9 °F /  3.3 °C 20.9 °F /  -6.2 °C 30.22in /  1023.2hPa SSW 0.3mph /  0.5km/h 5mph /  8km/h 49.9% 0.00in /  0mm 5 W/m2
16:24 37.8 °F /  3.2 °C 20.8 °F /  -6.2 °C 30.22in /  1023.2hPa SSW 0.6mph /  1km/h 5mph /  8km/h 50% 0.00in /  0mm 0 W/m2
16:29 37.7 °F /  3.2 °C 20.6 °F /  -6.3 °C 30.22in /  1023.2hPa SSW 0.6mph /  1km/h 5mph /  8km/h 49.7% 0.00in /  0mm 0 W/m2
16:34 37.6 °F /  3.1 °C 20.7 °F /  -6.3 °C 30.22in /  1023.2hPa SSW 0.5mph /  0.8km/h 5mph /  8km/h 50% 0.00in /  0mm 0 W/m2
16:39 37.5 °F /  3.1 °C 20.2 °F /  -6.6 °C 30.22in /  1023.2hPa South 1.4mph /  2.3km/h 6mph /  9.7km/h 49.3% 0.00in /  0mm 0 W/m2
16:44 37.4 °F /  3 °C 20 °F /  -6.7 °C 30.22in /  1023.2hPa South 0.5mph /  0.8km/h 6mph /  9.7km/h 49% 0.00in /  0mm 0 W/m2
16:49 37.4 °F /  3 °C 20 °F /  -6.7 °C 30.22in /  1023.2hPa South 0.1mph /  0.2km/h 6mph /  9.7km/h 49% 0.00in /  0mm 0 W/m2
16:54 37.3 °F /  2.9 °C 19.9 °F /  -6.7 °C 30.21in /  1022.9hPa South 0.1mph /  0.2km/h 6mph /  9.7km/h 49% 0.00in /  0mm 0 W/m2
16:59 37.1 °F /  2.8 °C 20 °F /  -6.7 °C 30.21in /  1022.9hPa South 0.5mph /  0.8km/h 6mph /  9.7km/h 49.5% 0.00in /  0mm 0 W/m2
17:04 37 °F /  2.8 °C 19.6 °F /  -6.9 °C 30.21in /  1022.9hPa South 0.8mph /  1.3km/h 7mph /  11.3km/h 49% 0.00in /  0mm 0 W/m2
17:09 37 °F /  2.8 °C 19.6 °F /  -6.9 °C 30.20in /  1022.6hPa South 0.1mph /  0.2km/h 7mph /  11.3km/h 49% 0.00in /  0mm 0 W/m2
17:14 36.9 °F /  2.7 °C 19.8 °F /  -6.8 °C 30.20in /  1022.6hPa South 0.3mph /  0.5km/h 7mph /  11.3km/h 49.7% 0.00in /  0mm 0 W/m2
17:19 36.8 °F /  2.7 °C 19.8 °F /  -6.8 °C 30.20in /  1022.6hPa South 0.8mph /  1.3km/h 7mph /  11.3km/h 49.8% 0.00in /  0mm 0 W/m2
17:24 36.7 °F /  2.6 °C 19.8 °F /  -6.8 °C 30.19in /  1022.2hPa SSW 1.3mph /  2.1km/h 7mph /  11.3km/h 50% 0.00in /  0mm 0 W/m2
17:29 36.7 °F /  2.6 °C 20 °F /  -6.7 °C 30.19in /  1022.2hPa SSW 0.9mph /  1.4km/h 7mph /  11.3km/h 50.5% 0.00in /  0mm 0 W/m2
17:34 36.6 °F /  2.6 °C 20.1 °F /  -6.6 °C 30.19in /  1022.2hPa SSW 0.6mph /  1km/h 7mph /  11.3km/h 50.7% 0.00in /  0mm 0 W/m2
17:39 36.6 °F /  2.6 °C 20.2 °F /  -6.6 °C 30.19in /  1022.2hPa SSW 0.3mph /  0.5km/h 4mph /  6.4km/h 51% 0.00in /  0mm 0 W/m2
17:44 36.6 °F /  2.6 °C 20.5 °F /  -6.4 °C 30.19in /  1022.2hPa SSW 0.9mph /  1.4km/h 5mph /  8km/h 51.8% 0.00in /  0mm 0 W/m2
17:49 36.6 °F /  2.6 °C 20.7 °F /  -6.3 °C 30.19in /  1022.2hPa SSW 1mph /  1.6km/h 6mph /  9.7km/h 52% 0.00in /  0mm 0 W/m2
17:54 36.6 °F /  2.6 °C 20.7 °F /  -6.3 °C 30.19in /  1022.2hPa SSW 0.9mph /  1.4km/h 6mph /  9.7km/h 52% 0.00in /  0mm 0 W/m2
17:59 36.6 °F /  2.6 °C 20.7 °F /  -6.3 °C 30.19in /  1022.2hPa SSW 1mph /  1.6km/h 6mph /  9.7km/h 52.2% 0.00in /  0mm 0 W/m2
18:04 36.7 °F /  2.6 °C 21.2 °F /  -6 °C 30.18in /  1021.9hPa SW 3mph /  4.8km/h 10mph /  16.1km/h 53% 0.00in /  0mm 0 W/m2
18:09 36.8 °F /  2.7 °C 21.3 °F /  -5.9 °C 30.17in /  1021.6hPa SW 1.7mph /  2.7km/h 10mph /  16.1km/h 53% 0.00in /  0mm 0 W/m2
18:14 36.9 °F /  2.7 °C 21.4 °F /  -5.9 °C 30.17in /  1021.6hPa SW 1.8mph /  2.9km/h 10mph /  16.1km/h 53% 0.00in /  0mm 0 W/m2
18:19 37 °F /  2.8 °C 21.5 °F /  -5.8 °C 30.17in /  1021.6hPa SW 1.4mph /  2.3km/h 10mph /  16.1km/h 53% 0.00in /  0mm 0 W/m2
18:24 37.1 °F /  2.8 °C 21.2 °F /  -6 °C 30.17in /  1021.6hPa SW 3mph /  4.8km/h 10mph /  16.1km/h 52.1% 0.00in /  0mm 0 W/m2
18:29 37.2 °F /  2.9 °C 21.2 °F /  -6 °C 30.17in /  1021.6hPa SW 2.8mph /  4.5km/h 10mph /  16.1km/h 52% 0.00in /  0mm 0 W/m2
18:34 37.3 °F /  2.9 °C 21.3 °F /  -5.9 °C 30.17in /  1021.6hPa SW 2.2mph /  3.5km/h 10mph /  16.1km/h 52% 0.00in /  0mm 0 W/m2
18:38 37.3 °F /  2.9 °C 21.3 °F /  -5.9 °C 30.17in /  1021.6hPa SW 2.7mph /  4.3km/h 9mph /  14.5km/h 52% 0.00in /  0mm 0 W/m2
19:00 37.6 °F /  3.1 °C 21.1 °F /  -6.1 °C 30.18in /  1021.9hPa SW 2mph /  3.2km/h 10mph /  16.1km/h 51% 0.00in /  0mm 0 W/m2
19:30 38.2 °F /  3.4 °C 21.7 °F /  -5.7 °C 30.18in /  1021.9hPa SW 1mph /  1.6km/h 7mph /  11.3km/h 51% 0.00in /  0mm 0 W/m2
20:04 38.5 °F /  3.6 °C 21.7 °F /  -5.7 °C 30.18in /  1021.9hPa SW 2.4mph /  3.9km/h 7mph /  11.3km/h 50.4% 0.00in /  0mm 0 W/m2
20:09 38.6 °F /  3.7 °C 21.6 °F /  -5.8 °C 30.18in /  1021.9hPa SW 1.1mph /  1.8km/h 6mph /  9.7km/h 50% 0.00in /  0mm 0 W/m2
20:14 38.6 °F /  3.7 °C 21.6 °F /  -5.8 °C 30.18in /  1021.9hPa SW 1.2mph /  1.9km/h 6mph /  9.7km/h 50% 0.00in /  0mm 0 W/m2
20:19 38.7 °F /  3.7 °C 21.4 °F /  -5.9 °C 30.18in /  1021.9hPa SW 2.8mph /  4.5km/h 7mph /  11.3km/h 49.5% 0.00in /  0mm 0 W/m2
20:24 38.8 °F /  3.8 °C 21.1 °F /  -6.1 °C 30.17in /  1021.6hPa SW 3mph /  4.8km/h 17mph /  27.4km/h 48.7% 0.00in /  0mm 0 W/m2
20:29 38.8 °F /  3.8 °C 21.2 °F /  -6 °C 30.18in /  1021.9hPa SW 2.6mph /  4.2km/h 17mph /  27.4km/h 48.8% 0.00in /  0mm 0 W/m2
20:34 38.8 °F /  3.8 °C 20.9 °F /  -6.2 °C 30.17in /  1021.6hPa SW 2.8mph /  4.5km/h 17mph /  27.4km/h 48.2% 0.00in /  0mm 0 W/m2
20:39 38.9 °F /  3.8 °C 20.7 °F /  -6.3 °C 30.18in /  1021.9hPa SSW 2.8mph /  4.5km/h 9mph /  14.5km/h 47.7% 0.00in /  0mm 0 W/m2
20:44 38.9 °F /  3.8 °C 20.4 °F /  -6.4 °C 30.18in /  1021.9hPa SW 2.4mph /  3.9km/h 9mph /  14.5km/h 47% 0.00in /  0mm 0 W/m2
20:49 38.9 °F /  3.8 °C 20.4 °F /  -6.4 °C 30.18in /  1021.9hPa SW 2.7mph /  4.3km/h 10mph /  16.1km/h 47% 0.00in /  0mm 0 W/m2
20:54 38.9 °F /  3.8 °C 19.9 °F /  -6.7 °C 30.17in /  1021.6hPa SW 3.6mph /  5.8km/h 11mph /  17.7km/h 46% 0.00in /  0mm 0 W/m2
20:59 39 °F /  3.9 °C 20 °F /  -6.7 °C 30.17in /  1021.6hPa SW 2.9mph /  4.7km/h 12mph /  19.3km/h 46% 0.00in /  0mm 0 W/m2
21:04 39 °F /  3.9 °C 19.7 °F /  -6.8 °C 30.18in /  1021.9hPa SW 4.6mph /  7.4km/h 12mph /  19.3km/h 45.4% 0.00in /  0mm 0 W/m2
21:09 39 °F /  3.9 °C 19.4 °F /  -7 °C 30.18in /  1021.9hPa SW 2.3mph /  3.7km/h 12mph /  19.3km/h 45% 0.00in /  0mm 0 W/m2
21:14 38.9 °F /  3.8 °C 19.4 °F /  -7 °C 30.18in /  1021.9hPa SW 3.2mph /  5.1km/h 12mph /  19.3km/h 45% 0.00in /  0mm 0 W/m2
21:19 38.9 °F /  3.8 °C 19.4 °F /  -7 °C 30.17in /  1021.6hPa SW 4.3mph /  6.9km/h 13mph /  20.9km/h 45% 0.00in /  0mm 0 W/m2
21:24 39 °F /  3.9 °C 19.5 °F /  -6.9 °C 30.18in /  1021.9hPa SW 2.1mph /  3.4km/h 13mph /  20.9km/h 45% 0.00in /  0mm 0 W/m2
21:29 38.9 °F /  3.8 °C 19.4 °F /  -7 °C 30.18in /  1021.9hPa SW 2.2mph /  3.5km/h 13mph /  20.9km/h 45% 0.00in /  0mm 0 W/m2
21:34 38.8 °F /  3.8 °C 19.3 °F /  -7.1 °C 30.18in /  1021.9hPa SW 4mph /  6.4km/h 13mph /  20.9km/h 45% 0.00in /  0mm 0 W/m2
21:39 38.8 °F /  3.8 °C 19.3 °F /  -7.1 °C 30.18in /  1021.9hPa SW 3.2mph /  5.1km/h 12mph /  19.3km/h 45% 0.00in /  0mm 0 W/m2
21:44 38.8 °F /  3.8 °C 19.3 °F /  -7.1 °C 30.18in /  1021.9hPa WSW 1.5mph /  2.4km/h 12mph /  19.3km/h 45% 0.00in /  0mm 0 W/m2
21:49 38.8 °F /  3.8 °C 19.3 °F /  -7.1 °C 30.18in /  1021.9hPa SW 2.3mph /  3.7km/h 12mph /  19.3km/h 45% 0.00in /  0mm 0 W/m2
21:54 38.8 °F /  3.8 °C 19.3 °F /  -7.1 °C 30.18in /  1021.9hPa SW 2.2mph /  3.5km/h 14mph /  22.5km/h 45% 0.00in /  0mm 0 W/m2
21:59 38.7 °F /  3.7 °C 19.5 °F /  -6.9 °C 30.18in /  1021.9hPa SW 4.1mph /  6.6km/h 14mph /  22.5km/h 45.5% 0.00in /  0mm 0 W/m2
22:04 38.8 °F /  3.8 °C 19.7 °F /  -6.8 °C 30.19in /  1022.2hPa SW 2.1mph /  3.4km/h 14mph /  22.5km/h 45.8% 0.00in /  0mm 0 W/m2
22:09 38.7 °F /  3.7 °C 19.7 °F /  -6.8 °C 30.18in /  1021.9hPa SW 2.4mph /  3.9km/h 13mph /  20.9km/h 46% 0.00in /  0mm 0 W/m2
22:14 38.7 °F /  3.7 °C 19.8 °F /  -6.8 °C 30.19in /  1022.2hPa WSW 1.5mph /  2.4km/h 13mph /  20.9km/h 46.1% 0.00in /  0mm 0 W/m2
22:19 38.7 °F /  3.7 °C 20 °F /  -6.7 °C 30.19in /  1022.2hPa WSW 0.9mph /  1.4km/h 13mph /  20.9km/h 46.5% 0.00in /  0mm 0 W/m2
22:24 38.7 °F /  3.7 °C 20.2 °F /  -6.6 °C 30.19in /  1022.2hPa WSW 1.4mph /  2.3km/h 13mph /  20.9km/h 47% 0.00in /  0mm 0 W/m2
22:29 38.6 °F /  3.7 °C 20.2 °F /  -6.6 °C 30.19in /  1022.2hPa SW 0.7mph /  1.1km/h 13mph /  20.9km/h 47.2% 0.00in /  0mm 0 W/m2
22:34 38.5 °F /  3.6 °C 20.6 °F /  -6.3 °C 30.19in /  1022.2hPa SW 0.1mph /  0.2km/h 13mph /  20.9km/h 48% 0.00in /  0mm 0 W/m2
22:39 38.4 °F /  3.6 °C 20.5 °F /  -6.4 °C 30.19in /  1022.2hPa SW 0.9mph /  1.4km/h 3mph /  4.8km/h 48% 0.00in /  0mm 0 W/m2
22:44 38.3 °F /  3.5 °C 20.7 °F /  -6.3 °C 30.19in /  1022.2hPa SW 0.3mph /  0.5km/h 5mph /  8km/h 48.7% 0.00in /  0mm 0 W/m2
22:49 38.2 °F /  3.4 °C 20.8 °F /  -6.2 °C 30.19in /  1022.2hPa SW 0.4mph /  0.6km/h 6mph /  9.7km/h 49% 0.00in /  0mm 0 W/m2
22:54 38.2 °F /  3.4 °C 20.7 °F /  -6.3 °C 30.19in /  1022.2hPa WSW 0.1mph /  0.2km/h 6mph /  9.7km/h 49% 0.00in /  0mm 0 W/m2
22:59 38 °F /  3.3 °C 20.9 °F /  -6.2 °C 30.20in /  1022.6hPa SW 0.4mph /  0.6km/h 6mph /  9.7km/h 49.7% 0.00in /  0mm 0 W/m2
23:00 38 °F /  3.3 °C 21 °F /  -6.1 °C 30.19in /  1022.2hPa Calm   6mph /  9.7km/h 50% 0.00in /  0mm 0 W/m2
23:09 38 °F /  3.3 °C 21 °F /  -6.1 °C 30.20in /  1022.6hPa SW 0.2mph /  0.3km/h 6mph /  9.7km/h 50% 0.00in /  0mm 0 W/m2
23:14 37.9 °F /  3.3 °C 21.4 °F /  -5.9 °C 30.20in /  1022.6hPa SW 0.1mph /  0.2km/h 6mph /  9.7km/h 51% 0.00in /  0mm 0 W/m2
23:19 37.8 °F /  3.2 °C 21.4 °F /  -5.9 °C 30.20in /  1022.6hPa SW 0.1mph /  0.2km/h 6mph /  9.7km/h 51% 0.00in /  0mm 0 W/m2
23:24 37.7 °F /  3.2 °C 21.6 °F /  -5.8 °C 30.20in /  1022.6hPa Calm   6mph /  9.7km/h 51.8% 0.00in /  0mm 0 W/m2
23:29 37.6 °F /  3.1 °C 21.6 °F /  -5.8 °C 30.20in /  1022.6hPa SW 0.3mph /  0.5km/h 6mph /  9.7km/h 52% 0.00in /  0mm 0 W/m2
23:34 37.5 °F /  3.1 °C 21.5 °F /  -5.8 °C 30.20in /  1022.6hPa Calm   6mph /  9.7km/h 52% 0.00in /  0mm 0 W/m2
23:39 37.4 °F /  3 °C 21.8 °F /  -5.7 °C 30.20in /  1022.6hPa Calm   1mph /  1.6km/h 52.9% 0.00in /  0mm 0 W/m2
23:44 37.3 °F /  2.9 °C 21.8 °F /  -5.7 °C 30.20in /  1022.6hPa Calm   1mph /  1.6km/h 53% 0.00in /  0mm 0 W/m2
23:49 37.1 °F /  2.8 °C 21.6 °F /  -5.8 °C 30.20in /  1022.6hPa SW 0.1mph /  0.2km/h 1mph /  1.6km/h 53% 0.00in /  0mm 0 W/m2
23:54 36.9 °F /  2.7 °C 21.9 °F /  -5.6 °C 30.20in /  1022.6hPa SW 0.3mph /  0.5km/h 2mph /  3.2km/h 54% 0.00in /  0mm 0 W/m2
23:59 36.8 °F /  2.7 °C 21.8 °F /  -5.7 °C 30.20in /  1022.6hPa Calm   2mph /  3.2km/h 54.3% 0.00in /  0mm 0 W/m2
Hartford County Weather
Compliments of Weather Underground - 2 mb